createdAt,value
2022-12-01T00:01:46.735Z,102282.59
2022-12-01T00:04:15.778Z,102271.03
2022-12-01T00:06:44.967Z,102272.66
2022-12-01T00:09:31.224Z,102267.84
2022-12-01T00:12:01.594Z,102267.38
2022-12-01T00:14:30.644Z,102260.75
2022-12-01T00:16:59.795Z,102264.81
2022-12-01T00:19:29.285Z,102267.50
2022-12-01T00:21:58.837Z,102265.06
2022-12-01T00:24:27.769Z,102268.25
2022-12-01T00:26:56.713Z,102266.00
2022-12-01T00:29:27.233Z,102268.44
2022-12-01T00:31:56.262Z,102258.44
2022-12-01T00:34:26.674Z,102260.31
2022-12-01T00:36:55.781Z,102254.66
2022-12-01T00:39:24.912Z,102266.81
2022-12-01T00:41:53.873Z,102255.88
2022-12-01T00:44:22.874Z,102255.88
2022-12-01T00:46:53.315Z,102251.56
2022-12-01T00:49:22.315Z,102254.00
2022-12-01T00:51:51.406Z,102249.06
2022-12-01T00:54:20.379Z,102251.41
2022-12-01T00:56:49.386Z,102250.72
2022-12-01T00:59:18.769Z,102252.63
2022-12-01T01:01:48.039Z,102253.78
2022-12-01T01:04:18.469Z,102253.16
2022-12-01T01:06:47.751Z,102259.09
2022-12-01T01:09:17.730Z,102257.63
2022-12-01T01:11:46.672Z,102255.81
2022-12-01T01:14:15.782Z,102253.91
2022-12-01T01:16:44.934Z,102259.50
2022-12-01T01:19:13.954Z,102268.25
2022-12-01T01:21:44.806Z,102257.28
2022-12-01T01:24:13.777Z,102266.59
2022-12-01T01:26:42.739Z,102263.53
2022-12-01T01:29:11.787Z,102262.13
2022-12-01T01:31:41.970Z,102266.59
2022-12-01T01:34:11.001Z,102260.50
2022-12-01T01:36:40.062Z,102254.56
2022-12-01T01:39:10.459Z,102247.25
2022-12-01T01:41:39.473Z,102245.34
2022-12-01T01:44:41.540Z,102249.75
2022-12-01T01:47:10.858Z,102250.75
2022-12-01T01:49:40.764Z,102252.41
2022-12-01T01:52:10.894Z,102255.22
2022-12-01T01:54:44.289Z,102251.63
2022-12-01T01:57:18.203Z,102252.09
2022-12-01T01:59:51.580Z,102252.59
2022-12-01T02:02:20.738Z,102245.69
2022-12-01T02:04:54.898Z,102255.69
2022-12-01T02:07:24.085Z,102257.94
2022-12-01T02:09:55.926Z,102263.03
2022-12-01T02:12:40.748Z,102266.53
2022-12-01T02:15:38.798Z,102262.56
2022-12-01T02:18:21.993Z,102269.84
2022-12-01T02:21:08.937Z,102262.56
2022-12-01T02:24:20.725Z,102263.84
2022-12-01T02:26:54.455Z,102265.03
2022-12-01T02:29:58.205Z,102263.84
2022-12-01T02:32:34.713Z,102255.09
2022-12-01T02:35:11.893Z,102250.03
2022-12-01T02:37:48.811Z,102255.44
2022-12-01T02:40:25.677Z,102259.22
2022-12-01T02:43:03.466Z,102251.97
2022-12-01T02:45:43.034Z,102254.13
2022-12-01T02:48:19.132Z,102258.56
2022-12-01T02:50:48.369Z,102251.38
2022-12-01T02:53:20.146Z,102249.50
2022-12-01T02:55:54.334Z,102256.97
2022-12-01T02:58:23.805Z,102249.75
2022-12-01T03:01:18.398Z,102246.28
2022-12-01T03:04:03.922Z,102246.09
2022-12-01T03:06:42.724Z,102243.00
2022-12-01T03:09:23.525Z,102249.19
2022-12-01T03:12:01.910Z,102251.59
2022-12-01T03:14:41.098Z,102247.59
2022-12-01T03:17:15.179Z,102250.41
2022-12-01T03:19:49.999Z,102251.34
2022-12-01T03:22:25.906Z,102253.22
2022-12-01T03:24:57.053Z,102254.28
2022-12-01T03:27:29.975Z,102256.63
2022-12-01T03:30:02.482Z,102244.47
2022-12-01T03:32:39.746Z,102244.88
2022-12-01T03:35:16.258Z,102248.53
2022-12-01T03:37:51.197Z,102242.84
2022-12-01T03:40:25.714Z,102245.94
2022-12-01T03:42:59.131Z,102244.19
2022-12-01T03:45:34.568Z,102235.84
2022-12-01T03:48:04.019Z,102236.81
2022-12-01T03:50:42.652Z,102238.94
2022-12-01T03:53:19.528Z,102241.19
2022-12-01T03:55:54.649Z,102224.66
2022-12-01T03:58:28.632Z,102234.63
2022-12-01T04:00:59.378Z,102230.88
2022-12-01T04:03:28.597Z,102236.81
2022-12-01T04:05:59.656Z,102235.59
2022-12-01T04:08:30.773Z,102239.31
2022-12-01T04:11:00.895Z,102228.88
2022-12-01T04:13:29.076Z,102227.00
2022-12-01T04:15:58.225Z,102239.63
2022-12-01T04:18:27.193Z,102233.09
2022-12-01T04:20:56.125Z,102231.13
2022-12-01T04:23:43.867Z,102240.41
2022-12-01T04:26:15.850Z,102236.53
2022-12-01T04:28:45.009Z,102236.78
2022-12-01T04:31:14.026Z,102241.94
2022-12-01T04:33:43.100Z,102243.41
2022-12-01T04:36:12.192Z,102238.66
2022-12-01T04:38:42.543Z,102240.56
2022-12-01T04:41:11.581Z,102238.22
2022-12-01T04:43:41.018Z,102244.69
2022-12-01T04:46:10.807Z,102246.81
2022-12-01T04:48:41.147Z,102251.56
2022-12-01T04:51:10.663Z,102250.94
2022-12-01T04:53:39.861Z,102251.56
2022-12-01T04:56:10.511Z,102254.75
2022-12-01T04:58:39.955Z,102262.81
2022-12-01T05:01:11.545Z,102252.31
2022-12-01T05:03:41.993Z,102256.94
2022-12-01T05:06:14.131Z,102255.41
2022-12-01T05:08:43.890Z,102263.75
2022-12-01T05:11:15.285Z,102263.03
2022-12-01T05:13:45.843Z,102259.00
2022-12-01T05:16:16.796Z,102270.63
2022-12-01T05:18:49.633Z,102263.84
2022-12-01T05:21:18.251Z,102256.44
2022-12-01T05:23:47.215Z,102256.53
2022-12-01T05:26:17.658Z,102269.53
2022-12-01T05:28:46.564Z,102265.63
2022-12-01T05:31:15.527Z,102264.31
2022-12-01T05:33:44.589Z,102264.31
2022-12-01T05:36:13.876Z,102268.75
2022-12-01T05:38:42.945Z,102269.69
2022-12-01T05:41:12.554Z,102264.41
2022-12-01T05:43:43.519Z,102260.41
2022-12-01T05:46:12.546Z,102266.34
2022-12-01T05:48:43.705Z,102275.28
2022-12-01T05:51:15.016Z,102278.34
2022-12-01T05:53:44.302Z,102288.09
2022-12-01T05:56:13.498Z,102287.47
2022-12-01T05:58:43.906Z,102290.16
2022-12-01T06:01:12.848Z,102293.34
2022-12-01T06:03:41.872Z,102295.84
2022-12-01T06:06:10.907Z,102292.22
2022-12-01T06:08:39.854Z,102291.97
2022-12-01T06:11:08.883Z,102288.88
2022-12-01T06:13:38.263Z,102291.13
2022-12-01T06:16:09.566Z,102290.50
2022-12-01T06:18:40.663Z,102292.78
2022-12-01T06:21:09.823Z,102292.25
2022-12-01T06:23:38.839Z,102285.38
2022-12-01T06:26:08.194Z,102271.38
2022-12-01T06:28:37.200Z,102280.25
2022-12-01T06:31:06.431Z,102281.97
2022-12-01T06:33:36.812Z,102277.06
2022-12-01T06:36:07.633Z,102281.44
2022-12-01T06:38:38.515Z,102281.53
2022-12-01T06:41:07.671Z,102280.50
2022-12-01T06:43:38.396Z,102282.75
2022-12-01T06:46:07.719Z,102284.28
2022-12-01T06:48:39.218Z,102284.41
2022-12-01T06:51:10.785Z,102279.13
2022-12-01T06:53:40.092Z,102291.69
2022-12-01T06:56:10.836Z,102293.06
2022-12-01T06:58:39.981Z,102286.19
2022-12-01T07:01:10.568Z,102281.19
2022-12-01T07:03:41.431Z,102285.22
2022-12-01T07:06:11.073Z,102288.78
2022-12-01T07:08:39.969Z,102294.53
2022-12-01T07:11:12.531Z,102291.25
2022-12-01T07:13:42.691Z,102292.97
2022-12-01T07:16:11.830Z,102293.34
2022-12-01T07:18:44.616Z,102293.19
2022-12-01T07:21:15.190Z,102295.50
2022-12-01T07:23:44.667Z,102294.00
2022-12-01T07:26:15.454Z,102290.09
2022-12-01T07:28:45.445Z,102296.31
2022-12-01T07:31:16.665Z,102294.00
2022-12-01T07:33:47.387Z,102292.63
2022-12-01T07:36:16.679Z,102298.44
2022-12-01T07:38:46.875Z,102307.06
2022-12-01T07:41:19.224Z,102313.25
2022-12-01T07:43:49.862Z,102315.28
2022-12-01T07:46:23.489Z,102314.47
2022-12-01T07:48:55.473Z,102313.25
2022-12-01T07:51:26.631Z,102315.28
2022-12-01T07:53:56.917Z,102311.22
2022-12-01T07:56:26.034Z,102306.81
2022-12-01T07:58:55.279Z,102309.38
2022-12-01T08:01:25.992Z,102307.34
2022-12-01T08:03:59.390Z,102301.78
2022-12-01T08:06:28.980Z,102296.56
2022-12-01T08:08:58.307Z,102302.88
2022-12-01T08:11:30.498Z,102299.84
2022-12-01T08:13:59.483Z,102294.84
2022-12-01T08:16:28.941Z,102286.34
2022-12-01T08:18:59.619Z,102291.97
2022-12-01T08:21:28.707Z,102290.75
2022-12-01T08:23:59.090Z,102280.78
2022-12-01T08:26:28.723Z,102285.84
2022-12-01T08:28:59.701Z,102287.84
2022-12-01T08:31:30.501Z,102280.66
2022-12-01T08:34:00.960Z,102286.28
2022-12-01T08:36:30.028Z,102285.16
2022-12-01T08:38:59.091Z,102284.00
2022-12-01T08:41:28.628Z,102278.16
2022-12-01T08:43:59.802Z,102283.22
2022-12-01T08:46:32.874Z,102283.59
2022-12-01T08:49:05.212Z,102273.00
2022-12-01T08:51:34.157Z,102275.94
2022-12-01T08:54:03.437Z,102279.81
2022-12-01T08:56:35.180Z,102279.28
2022-12-01T08:59:05.369Z,102274.06
2022-12-01T09:01:35.010Z,102272.63
2022-12-01T09:04:09.164Z,102266.38
2022-12-01T09:06:42.093Z,102264.59
2022-12-01T09:09:13.006Z,102257.09
2022-12-01T09:11:43.822Z,102249.22
2022-12-01T09:14:13.252Z,102248.97
2022-12-01T09:16:43.290Z,102255.88
2022-12-01T09:19:17.901Z,102248.38
2022-12-01T09:21:51.109Z,102250.88
2022-12-01T09:24:20.054Z,102256.22
2022-12-01T09:26:49.200Z,102247.78
2022-12-01T09:29:18.716Z,102252.25
2022-12-01T09:31:47.835Z,102254.81
2022-12-01T09:34:20.393Z,102253.66
2022-12-01T09:36:49.997Z,102257.84
2022-12-01T09:39:21.069Z,102254.47
2022-12-01T09:41:54.367Z,102255.75
2022-12-01T09:44:33.837Z,102245.38
2022-12-01T09:47:10.154Z,102252.94
2022-12-01T09:49:54.483Z,102251.03
2022-12-01T09:52:26.586Z,102247.88
2022-12-01T09:54:59.392Z,102241.91
2022-12-01T09:57:33.736Z,102247.25
2022-12-01T10:00:06.969Z,102236.22
2022-12-01T10:02:44.558Z,102246.94
2022-12-01T10:05:18.612Z,102240.63
2022-12-01T10:07:52.652Z,102242.53
2022-12-01T10:10:28.867Z,102244.06
2022-12-01T10:12:58.320Z,102240.63
2022-12-01T10:15:36.687Z,102244.72
2022-12-01T10:18:22.307Z,102251.00
2022-12-01T10:21:05.450Z,102249.13
2022-12-01T10:23:49.326Z,102250.09
2022-12-01T10:26:28.476Z,102246.59
2022-12-01T10:29:18.023Z,102242.84
2022-12-01T10:31:54.627Z,102245.66
2022-12-01T10:34:26.242Z,102241.28
2022-12-01T10:36:57.293Z,102238.75
2022-12-01T10:39:31.077Z,102238.72
2022-12-01T10:42:06.239Z,102232.44
2022-12-01T10:44:36.608Z,102228.69
2022-12-01T10:47:12.324Z,102231.50
2022-12-01T10:49:42.547Z,102224.25
2022-12-01T10:52:35.478Z,102240.28
2022-12-01T10:55:07.035Z,102236.22
2022-12-01T10:57:37.711Z,102237.47
2022-12-01T11:00:09.561Z,102229.97
2022-12-01T11:02:38.867Z,102231.19
2022-12-01T11:05:20.426Z,102224.94
2022-12-01T11:07:51.546Z,102222.41
2022-12-01T11:10:23.069Z,102225.88
2022-12-01T11:12:57.104Z,102227.75
2022-12-01T11:15:28.079Z,102223.63
2022-12-01T11:18:02.369Z,102219.84
2022-12-01T11:20:35.521Z,102225.81
2022-12-01T11:23:28.402Z,102223.94
2022-12-01T11:26:02.373Z,102228.69
2022-12-01T11:28:32.872Z,102227.41
2022-12-01T11:31:04.416Z,102228.69
2022-12-01T11:33:40.820Z,102233.72
2022-12-01T11:36:16.056Z,102231.50
2022-12-01T11:38:46.744Z,102226.81
2022-12-01T11:41:31.212Z,102220.50
2022-12-01T11:44:06.298Z,102223.66
2022-12-01T11:46:50.059Z,102221.75
2022-12-01T11:49:22.213Z,102225.22
2022-12-01T11:51:51.724Z,102218.91
2022-12-01T11:54:24.296Z,102228.03
2022-12-01T11:57:25.447Z,102225.81
2022-12-01T11:59:43.505Z,102215.44
2022-12-01T12:02:26.264Z,102222.06
2022-12-01T12:05:21.366Z,102221.13
2022-12-01T12:08:01.166Z,102229.28
2022-12-01T12:10:42.044Z,102224.94
2022-12-01T12:13:38.295Z,102236.25
2022-12-01T12:16:17.990Z,102239.41
2022-12-01T12:19:01.977Z,102237.50
2022-12-01T12:21:35.230Z,102246.00
2022-12-01T12:24:24.147Z,102246.94
2022-12-01T12:27:02.975Z,102247.22
2022-12-01T12:29:49.741Z,102244.34
2022-12-01T12:32:34.011Z,102241.22
2022-12-01T12:35:11.025Z,102245.63
2022-12-01T12:37:50.137Z,102240.31
2022-12-01T12:40:30.584Z,102236.78
2022-12-01T12:43:16.576Z,102238.31
2022-12-01T12:45:59.429Z,102236.03
2022-12-01T12:49:11.673Z,102235.38
2022-12-01T12:51:37.564Z,102241.13
2022-12-01T12:54:18.956Z,102238.88
2022-12-01T12:56:54.630Z,102234.72
2022-12-01T12:59:29.826Z,102237.75
2022-12-01T13:02:08.272Z,102230.16
2022-12-01T13:04:45.119Z,102230.06
2022-12-01T13:07:27.746Z,102227.16
2022-12-01T13:10:01.782Z,102229.97
2022-12-01T13:12:36.507Z,102231.16
2022-12-01T13:15:16.112Z,102235.88
2022-12-01T13:17:49.507Z,102244.63
2022-12-01T13:20:28.838Z,102239.34
2022-12-01T13:23:00.798Z,102232.38
2022-12-01T13:25:32.707Z,102231.13
2022-12-01T13:28:04.735Z,102238.00
2022-12-01T13:30:35.170Z,102227.00
2022-12-01T13:33:06.047Z,102235.47
2022-12-01T13:35:38.757Z,102238.25
2022-12-01T13:38:29.621Z,102234.84
2022-12-01T13:41:24.364Z,102244.25
2022-12-01T13:43:58.926Z,102244.25
2022-12-01T13:46:34.118Z,102239.84
2022-12-01T13:49:05.445Z,102243.94
2022-12-01T13:52:09.976Z,102243.72
2022-12-01T13:54:39.084Z,102243.78
2022-12-01T13:57:29.405Z,102235.34
2022-12-01T14:00:22.379Z,102236.66
2022-12-01T14:03:33.029Z,102232.84
2022-12-01T14:06:11.280Z,102228.47
2022-12-01T14:08:48.082Z,102224.72
2022-12-01T14:11:23.838Z,102218.16
2022-12-01T14:13:57.390Z,102223.47
2022-12-01T14:16:27.590Z,102225.06
2022-12-01T14:18:58.714Z,102219.09
2022-12-01T14:21:48.037Z,102224.41
2022-12-01T14:24:24.415Z,102213.69
2022-12-01T14:26:53.971Z,102210.88
2022-12-01T14:29:31.853Z,102210.25
2022-12-01T14:32:20.970Z,102209.94
2022-12-01T14:35:12.795Z,102214.00
2022-12-01T14:37:51.069Z,102212.75
2022-12-01T14:40:29.729Z,102210.25
2022-12-01T14:43:18.454Z,102215.34
2022-12-01T14:45:58.699Z,102212.53
2022-12-01T14:48:37.102Z,102211.94
2022-12-01T14:51:27.284Z,102208.16
2022-12-01T14:53:59.611Z,102207.50
2022-12-01T14:56:30.843Z,102200.59
2022-12-01T14:59:02.940Z,102204.03
2022-12-01T15:01:33.945Z,102208.09
2022-12-01T15:04:05.510Z,102206.84
2022-12-01T15:06:37.312Z,102204.31
2022-12-01T15:12:03.673Z,102209.91
2022-12-01T15:14:34.872Z,102206.09
2022-12-01T15:17:05.729Z,102207.06
2022-12-01T15:19:38.178Z,102199.84
2022-12-01T15:22:14.649Z,102198.28
2022-12-01T15:24:45.858Z,102200.13
2022-12-01T15:27:27.579Z,102196.31
2022-12-01T15:29:58.448Z,102192.59
2022-12-01T15:32:28.599Z,102190.38
2022-12-01T15:35:01.950Z,102189.78
2022-12-01T15:37:41.912Z,102190.38
2022-12-01T15:41:00.137Z,102195.72
2022-12-01T15:43:15.936Z,102205.44
2022-12-01T15:45:51.869Z,102211.09
2022-12-01T15:48:29.002Z,102218.03
2022-12-01T15:51:07.976Z,102213.72
2022-12-01T15:53:40.051Z,102215.66
2022-12-01T15:56:12.764Z,102213.81
2022-12-01T15:58:47.523Z,102212.53
2022-12-01T16:01:19.943Z,102210.69
2022-12-01T16:03:53.254Z,102201.28
2022-12-01T16:06:28.349Z,102194.94
2022-12-01T16:09:00.714Z,102198.72
2022-12-01T16:11:32.121Z,102196.47
2022-12-01T16:14:05.397Z,102189.81
2022-12-01T16:16:41.255Z,102194.81
2022-12-01T16:19:31.257Z,102196.66
2022-12-01T16:22:05.494Z,102192.91
2022-12-01T16:24:38.024Z,102191.03
2022-12-01T16:27:19.724Z,102192.28
2022-12-01T16:29:52.992Z,102195.09
2022-12-01T16:32:25.571Z,102199.81
2022-12-01T16:34:55.478Z,102191.97
2022-12-01T16:37:25.533Z,102201.69
2022-12-01T16:39:55.209Z,102198.25
2022-12-01T16:42:26.591Z,102203.56
2022-12-01T16:44:56.137Z,102186.63
2022-12-01T16:47:26.843Z,102182.50
2022-12-01T16:49:56.430Z,102176.19
2022-12-01T16:55:42.091Z,102183.41
2022-12-01T16:58:14.123Z,102182.75
2022-12-01T17:00:44.409Z,102186.19
2022-12-01T17:03:17.262Z,102173.38
2022-12-01T17:05:47.010Z,102173.38
2022-12-01T17:08:17.223Z,102179.31
2022-12-01T17:10:49.700Z,102181.53
2022-12-01T17:13:23.544Z,102185.91
2022-12-01T17:15:56.623Z,102190.66
2022-12-01T17:18:26.714Z,102182.81
2022-12-01T17:21:00.252Z,102190.00
2022-12-01T17:23:29.945Z,102183.69
2022-12-01T17:25:59.464Z,102184.66
2022-12-01T17:28:30.543Z,102184.66
2022-12-01T17:31:02.963Z,102185.91
2022-12-01T17:33:34.249Z,102183.34
2022-12-01T17:36:06.930Z,102180.16
2022-12-01T17:38:37.942Z,102185.47
2022-12-01T17:41:09.349Z,102181.69
2022-12-01T17:43:40.799Z,102171.31
2022-12-01T17:46:12.201Z,102172.59
2022-12-01T17:48:43.174Z,102163.78
2022-12-01T17:51:13.676Z,102166.91
2022-12-01T17:53:43.114Z,102179.78
2022-12-01T17:56:14.466Z,102167.88
2022-12-01T17:58:47.982Z,102168.19
2022-12-01T18:01:19.677Z,102170.69
2022-12-01T18:03:50.228Z,102171.94
2022-12-01T18:06:20.169Z,102176.31
2022-12-01T18:08:49.342Z,102176.31
2022-12-01T18:11:19.689Z,102171.91
2022-12-01T18:13:52.005Z,102174.13
2022-12-01T18:16:29.837Z,102177.91
2022-12-01T18:19:03.273Z,102175.09
2022-12-01T18:21:32.351Z,102182.56
2022-12-01T18:24:04.150Z,102183.81
2022-12-01T18:26:35.035Z,102171.47
2022-12-01T18:29:07.687Z,102169.94
2022-12-01T18:31:37.149Z,102168.66
2022-12-01T18:34:08.150Z,102157.00
2022-12-01T18:36:39.539Z,102167.97
2022-12-01T18:39:11.254Z,102169.81
2022-12-01T18:41:41.156Z,102170.13
2022-12-01T18:44:15.570Z,102172.25
2022-12-01T18:46:47.921Z,102180.03
2022-12-01T18:49:17.631Z,102181.94
2022-12-01T18:51:46.912Z,102182.19
2022-12-01T18:54:17.614Z,102192.50
2022-12-01T18:56:47.654Z,102180.88
2022-12-01T18:59:18.578Z,102180.88
2022-12-01T19:01:48.863Z,102185.63
2022-12-01T19:04:18.576Z,102172.13
2022-12-01T19:06:48.409Z,102178.72
2022-12-01T19:09:18.277Z,102182.78
2022-12-01T19:11:47.660Z,102193.13
2022-12-01T19:14:19.804Z,102189.41
2022-12-01T19:16:49.796Z,102189.09
2022-12-01T19:19:18.964Z,102186.00
2022-12-01T19:21:48.240Z,102186.56
2022-12-01T19:24:17.421Z,102188.97
2022-12-01T19:26:46.574Z,102193.06
2022-12-01T19:29:15.898Z,102194.63
2022-12-01T19:31:46.906Z,102204.69
2022-12-01T19:34:16.155Z,102211.28
2022-12-01T19:36:45.444Z,102211.59
2022-12-01T19:39:15.018Z,102214.38
2022-12-01T19:41:44.339Z,102213.16
2022-12-01T19:44:13.269Z,102219.47
2022-12-01T19:46:42.406Z,102222.91
2022-12-01T19:49:13.041Z,102225.44
2022-12-01T19:51:42.586Z,102222.91
2022-12-01T19:54:15.591Z,102225.06
2022-12-01T19:56:46.887Z,102230.09
2022-12-01T19:59:15.997Z,102228.47
2022-12-01T20:01:45.054Z,102221.88
2022-12-01T20:04:15.694Z,102224.72
2022-12-01T20:06:46.465Z,102218.13
2022-12-01T20:09:15.953Z,102227.81
2022-12-01T20:11:44.956Z,102226.22
2022-12-01T20:14:19.003Z,102224.56
2022-12-01T20:16:48.219Z,102217.94
2022-12-01T20:19:18.832Z,102219.16
2022-12-01T20:21:47.943Z,102214.41
2022-12-01T20:24:19.933Z,102211.28
2022-12-01T20:26:51.849Z,102211.59
2022-12-01T20:29:23.579Z,102218.41
2022-12-01T20:31:53.966Z,102221.19
2022-12-01T20:34:34.723Z,102218.56
2022-12-01T20:37:04.645Z,102216.69
2022-12-01T20:39:36.894Z,102216.38
2022-12-01T20:42:06.217Z,102209.75
2022-12-01T20:44:35.345Z,102215.66
2022-12-01T20:47:23.437Z,102209.34
2022-12-01T20:49:58.114Z,102204.03
2022-12-01T20:52:30.732Z,102205.22
2022-12-01T20:54:59.718Z,102207.41
2022-12-01T20:57:29.287Z,102207.72
2022-12-01T20:59:58.387Z,102201.50
2022-12-01T21:02:27.459Z,102203.44
2022-12-01T21:04:59.278Z,102214.75
2022-12-01T21:07:28.517Z,102214.66
2022-12-01T21:09:57.511Z,102215.81
2022-12-01T21:12:54.500Z,102220.09
2022-12-01T21:15:29.144Z,102224.50
2022-12-01T21:18:02.559Z,102218.91
2022-12-01T21:20:36.056Z,102221.41
2022-12-01T21:23:11.071Z,102226.41
2022-12-01T21:25:41.450Z,102216.34
2022-12-01T21:28:18.962Z,102222.22
2022-12-01T21:30:48.553Z,102219.94
2022-12-01T21:33:26.914Z,102216.44
2022-12-01T21:35:57.526Z,102219.16
2022-12-01T21:38:26.833Z,102213.88
2022-12-01T21:40:56.106Z,102215.88
2022-12-01T21:43:26.973Z,102213.03
2022-12-01T21:45:59.546Z,102213.56
2022-12-01T21:48:36.316Z,102209.41
2022-12-01T21:51:17.728Z,102214.56
2022-12-01T21:53:47.853Z,102214.56
2022-12-01T21:56:22.416Z,102203.91
2022-12-01T21:58:53.873Z,102214.91
2022-12-01T22:01:28.322Z,102211.06
2022-12-01T22:04:02.079Z,102211.91
2022-12-01T22:06:39.143Z,102217.84
2022-12-01T22:09:15.814Z,102215.72
2022-12-01T22:11:48.856Z,102215.47
2022-12-01T22:14:22.216Z,102206.41
2022-12-01T22:16:55.849Z,102209.50
2022-12-01T22:19:30.828Z,102205.09
2022-12-01T22:22:23.539Z,102211.97
2022-12-01T22:24:55.359Z,102201.31
2022-12-01T22:27:29.858Z,102205.69
2022-12-01T22:30:01.464Z,102210.97
2022-12-01T22:32:37.505Z,102211.91
2022-12-01T22:35:28.016Z,102215.28
2022-12-01T22:38:02.313Z,102216.84
2022-12-01T22:40:38.739Z,102210.28
2022-12-01T22:43:24.637Z,102211.22
2022-12-01T22:46:04.067Z,102208.66
2022-12-01T22:48:37.172Z,102206.72
2022-12-01T22:51:27.327Z,102204.22
2022-12-01T22:54:02.039Z,102205.66
2022-12-01T22:56:38.864Z,102209.47
2022-12-01T22:59:16.963Z,102208.22
2022-12-01T23:01:50.926Z,102201.03
2022-12-01T23:04:27.406Z,102207.84
2022-12-01T23:07:02.812Z,102206.22
2022-12-01T23:09:39.152Z,102207.72
2022-12-01T23:12:28.800Z,102206.09
2022-12-01T23:15:00.311Z,102198.28
2022-12-01T23:17:31.048Z,102202.59
2022-12-01T23:20:26.167Z,102203.91
2022-12-01T23:22:56.426Z,102196.66
2022-12-01T23:25:28.618Z,102198.22
2022-12-01T23:28:01.682Z,102198.91
2022-12-01T23:30:30.866Z,102202.03
2022-12-01T23:33:07.812Z,102201.97
2022-12-01T23:35:46.341Z,102208.53
2022-12-01T23:38:19.485Z,102200.44
2022-12-01T23:40:52.061Z,102206.09
2022-12-01T23:43:23.626Z,102199.47
2022-12-01T23:46:02.482Z,102207.97
2022-12-01T23:48:36.225Z,102207.97
2022-12-01T23:51:06.308Z,102203.97
2022-12-01T23:53:35.341Z,102202.78
2022-12-01T23:56:11.219Z,102200.28
2022-12-01T23:58:40.295Z,102196.53
